AFR19BX LFPG-LFMT
Flight info
| Callsign | AFR19BX |
|---|---|
| Flight time | 1h 0m |
| Altitude | 33000 |
| Route | ERIXU DCT ETAMO DCT ADEKA/N0420F250 DCT MOKDI DCT MEN |
| Aircraft | A321/M-SDE3FGHIRWY/LB1 |
Departure
| Time | 2026-04-23 16:57 |
|---|---|
| Airport | Charles de Gaulle International Airport (LFPG) |
Arrival
| Time | 2026-04-23 17:58 |
|---|---|
| Airport | Montpellier-Méditerranée Airport (LFMT) |
| Time | Latitude | Longitude | Altitude | Speed | Heading |
|---|---|---|---|---|---|
| 2026-04-23 16:32 | 49.00650 | 2.58022 | 401 ft | 0 kts | 267° |
| 2026-04-23 16:44 | 49.00650 | 2.58023 | 401 ft | 1 kts | 268° |
| 2026-04-23 16:44 | 49.00652 | 2.58053 | 401 ft | 2 kts | 267° |
| 2026-04-23 16:45 | 49.00652 | 2.58076 | 401 ft | 2 kts | 268° |
| 2026-04-23 16:45 | 49.00653 | 2.58099 | 401 ft | 2 kts | 279° |
| 2026-04-23 16:45 | 49.00650 | 2.58114 | 401 ft | 2 kts | 299° |
| 2026-04-23 16:45 | 49.00636 | 2.58136 | 401 ft | 2 kts | 331° |
| 2026-04-23 16:46 | 49.00623 | 2.58144 | 401 ft | 0 kts | 353° |
| 2026-04-23 16:46 | 49.00617 | 2.58144 | 401 ft | 1 kts | 357° |
| 2026-04-23 16:46 | 49.00616 | 2.58144 | 401 ft | 0 kts | 356° |
| 2026-04-23 16:47 | 49.00617 | 2.58144 | 401 ft | 0 kts | 356° |
| 2026-04-23 16:47 | 49.00621 | 2.58144 | 401 ft | 0 kts | 356° |
| 2026-04-23 16:48 | 49.00623 | 2.58144 | 401 ft | 0 kts | 356° |
| 2026-04-23 16:48 | 49.00632 | 2.58143 | 401 ft | 1 kts | 356° |
| 2026-04-23 16:49 | 49.00644 | 2.58142 | 401 ft | 3 kts | 356° |
| 2026-04-23 16:49 | 49.00682 | 2.58136 | 401 ft | 5 kts | 355° |
| 2026-04-23 16:49 | 49.00725 | 2.58130 | 401 ft | 7 kts | 354° |
| 2026-04-23 16:49 | 49.00778 | 2.58111 | 401 ft | 8 kts | 330° |
| 2026-04-23 16:50 | 49.00809 | 2.58031 | 401 ft | 10 kts | 270° |
| 2026-04-23 16:50 | 49.00805 | 2.57914 | 401 ft | 11 kts | 265° |
| 2026-04-23 16:50 | 49.00797 | 2.57779 | 401 ft | 13 kts | 265° |
| 2026-04-23 16:50 | 49.00789 | 2.57626 | 401 ft | 15 kts | 266° |
| 2026-04-23 16:51 | 49.00781 | 2.57458 | 401 ft | 16 kts | 265° |
| 2026-04-23 16:51 | 49.00768 | 2.57277 | 401 ft | 17 kts | 250° |
| 2026-04-23 16:51 | 49.00688 | 2.57189 | 401 ft | 14 kts | 236° |
| 2026-04-23 16:51 | 49.00659 | 2.57047 | 401 ft | 14 kts | 259° |
| 2026-04-23 16:52 | 49.00648 | 2.56884 | 401 ft | 16 kts | 268° |
| 2026-04-23 16:52 | 49.00640 | 2.56708 | 401 ft | 17 kts | 264° |
| 2026-04-23 16:52 | 49.00627 | 2.56520 | 401 ft | 18 kts | 266° |
| 2026-04-23 16:52 | 49.00619 | 2.56322 | 401 ft | 19 kts | 266° |
| 2026-04-23 16:53 | 49.00607 | 2.56116 | 401 ft | 19 kts | 265° |
| 2026-04-23 16:53 | 49.00573 | 2.55927 | 401 ft | 18 kts | 259° |
| 2026-04-23 16:53 | 49.00561 | 2.55728 | 401 ft | 19 kts | 266° |
| 2026-04-23 16:53 | 49.00541 | 2.55531 | 401 ft | 18 kts | 238° |
| 2026-04-23 16:54 | 49.00420 | 2.55483 | 401 ft | 19 kts | 166° |
| 2026-04-23 16:54 | 49.00288 | 2.55540 | 401 ft | 20 kts | 164° |
| 2026-04-23 16:54 | 49.00152 | 2.55601 | 401 ft | 20 kts | 165° |
| 2026-04-23 16:54 | 49.00060 | 2.55640 | 401 ft | 20 kts | 164° |
| 2026-04-23 16:55 | 48.99931 | 2.55730 | 401 ft | 18 kts | 122° |
| 2026-04-23 16:55 | 48.99804 | 2.55801 | 401 ft | 15 kts | 175° |
| 2026-04-23 16:55 | 48.99730 | 2.55812 | 401 ft | 16 kts | 174° |
| 2026-04-23 16:55 | 48.99610 | 2.55860 | 401 ft | 13 kts | 119° |
| 2026-04-23 16:56 | 48.99604 | 2.55920 | 401 ft | 0 kts | 86° |
| 2026-04-23 16:56 | 48.99606 | 2.55946 | 401 ft | 12 kts | 86° |
| 2026-04-23 16:56 | 48.99651 | 2.56798 | 401 ft | 107 kts | 85° |
| 2026-04-23 16:57 | 48.99698 | 2.57692 | 401 ft | 148 kts | 85° |
| 2026-04-23 16:57 | 48.99823 | 2.60033 | 948 ft | 173 kts | 84° |
| 2026-04-23 16:57 | 48.99937 | 2.61868 | 1580 ft | 180 kts | 83° |
| 2026-04-23 16:57 | 49.00071 | 2.63789 | 2275 ft | 180 kts | 83° |
| 2026-04-23 16:58 | 49.00177 | 2.65612 | 2875 ft | 172 kts | 85° |
| 2026-04-23 16:58 | 49.00232 | 2.66857 | 3080 ft | 179 kts | 85° |
| 2026-04-23 16:58 | 49.00346 | 2.69471 | 3438 ft | 195 kts | 85° |
| 2026-04-23 16:58 | 49.00412 | 2.70889 | 3613 ft | 204 kts | 85° |
| 2026-04-23 16:59 | 49.00559 | 2.73903 | 3972 ft | 225 kts | 85° |
| 2026-04-23 16:59 | 49.00682 | 2.76377 | 4284 ft | 241 kts | 85° |
| 2026-04-23 16:59 | 49.00748 | 2.78973 | 4715 ft | 253 kts | 91° |
| 2026-04-23 16:59 | 49.00622 | 2.81646 | 5371 ft | 256 kts | 97° |
| 2026-04-23 17:00 | 49.00322 | 2.84332 | 6040 ft | 258 kts | 100° |
| 2026-04-23 17:00 | 48.99977 | 2.87019 | 6704 ft | 261 kts | 101° |
| 2026-04-23 17:00 | 48.99745 | 2.88802 | 7143 ft | 263 kts | 101° |
| 2026-04-23 17:00 | 48.99265 | 2.92497 | 8046 ft | 266 kts | 101° |
| 2026-04-23 17:01 | 48.99025 | 2.94355 | 8494 ft | 268 kts | 101° |
| 2026-04-23 17:01 | 48.98268 | 2.97945 | 9329 ft | 273 kts | 122° |
| 2026-04-23 17:01 | 48.96931 | 3.00061 | 9953 ft | 279 kts | 145° |
| 2026-04-23 17:01 | 48.95100 | 3.01182 | 10535 ft | 288 kts | 168° |
| 2026-04-23 17:02 | 48.93749 | 3.01247 | 10764 ft | 300 kts | 185° |
| 2026-04-23 17:02 | 48.91153 | 2.99440 | 11084 ft | 328 kts | 221° |
| 2026-04-23 17:02 | 48.89878 | 2.96485 | 11365 ft | 344 kts | 250° |
| 2026-04-23 17:02 | 48.89269 | 2.93059 | 11967 ft | 347 kts | 256° |
| 2026-04-23 17:03 | 48.88702 | 2.89545 | 12558 ft | 349 kts | 255° |
| 2026-04-23 17:03 | 48.88105 | 2.85943 | 13128 ft | 352 kts | 255° |
| 2026-04-23 17:03 | 48.87493 | 2.82359 | 13698 ft | 355 kts | 254° |
| 2026-04-23 17:03 | 48.86867 | 2.78762 | 14259 ft | 357 kts | 254° |
| 2026-04-23 17:04 | 48.86222 | 2.75098 | 14813 ft | 359 kts | 253° |
| 2026-04-23 17:04 | 48.85572 | 2.71430 | 15353 ft | 361 kts | 253° |
| 2026-04-23 17:04 | 48.84919 | 2.67745 | 15876 ft | 364 kts | 253° |
| 2026-04-23 17:04 | 48.84171 | 2.64064 | 16373 ft | 365 kts | 247° |
| 2026-04-23 17:05 | 48.83488 | 2.61712 | 16712 ft | 365 kts | 241° |
| 2026-04-23 17:05 | 48.82194 | 2.58420 | 17211 ft | 365 kts | 233° |
| 2026-04-23 17:05 | 48.80223 | 2.54212 | 17858 ft | 368 kts | 232° |
| 2026-04-23 17:05 | 48.78713 | 2.51062 | 18328 ft | 370 kts | 232° |
| 2026-04-23 17:06 | 48.77202 | 2.47881 | 18778 ft | 372 kts | 232° |
| 2026-04-23 17:06 | 48.75687 | 2.44671 | 19209 ft | 375 kts | 232° |
| 2026-04-23 17:06 | 48.74138 | 2.41501 | 19623 ft | 376 kts | 227° |
| 2026-04-23 17:06 | 48.72944 | 2.39557 | 19893 ft | 376 kts | 220° |
| 2026-04-23 17:07 | 48.70178 | 2.36347 | 20441 ft | 374 kts | 208° |
| 2026-04-23 17:07 | 48.68041 | 2.34397 | 20845 ft | 375 kts | 206° |
| 2026-04-23 17:07 | 48.65754 | 2.32364 | 21261 ft | 377 kts | 206° |
| 2026-04-23 17:07 | 48.63485 | 2.30342 | 21656 ft | 379 kts | 206° |
| 2026-04-23 17:08 | 48.61234 | 2.28328 | 22044 ft | 380 kts | 206° |
| 2026-04-23 17:08 | 48.58942 | 2.26275 | 22428 ft | 382 kts | 206° |
| 2026-04-23 17:08 | 48.56654 | 2.24225 | 22797 ft | 384 kts | 206° |
| 2026-04-23 17:08 | 48.54342 | 2.22152 | 23173 ft | 385 kts | 205° |
| 2026-04-23 17:09 | 48.51971 | 2.20422 | 23517 ft | 381 kts | 194° |
| 2026-04-23 17:09 | 48.49424 | 2.19511 | 23922 ft | 374 kts | 182° |
| 2026-04-23 17:09 | 48.46849 | 2.19408 | 24302 ft | 370 kts | 173° |
| 2026-04-23 17:09 | 48.44265 | 2.19612 | 24602 ft | 372 kts | 173° |
| 2026-04-23 17:10 | 48.41668 | 2.19853 | 24848 ft | 376 kts | 173° |
| 2026-04-23 17:10 | 48.39083 | 2.20086 | 25113 ft | 379 kts | 173° |
| 2026-04-23 17:10 | 48.36438 | 2.20313 | 25385 ft | 382 kts | 173° |
| 2026-04-23 17:10 | 48.33779 | 2.20533 | 25644 ft | 385 kts | 173° |
| 2026-04-23 17:11 | 48.31099 | 2.20758 | 25903 ft | 388 kts | 173° |
| 2026-04-23 17:11 | 48.28413 | 2.21131 | 26162 ft | 389 kts | 170° |
| 2026-04-23 17:11 | 48.26643 | 2.21505 | 26322 ft | 391 kts | 168° |
| 2026-04-23 17:11 | 48.23043 | 2.22379 | 26634 ft | 395 kts | 168° |
| 2026-04-23 17:12 | 48.21209 | 2.22823 | 26789 ft | 397 kts | 168° |
| 2026-04-23 17:12 | 48.17594 | 2.23698 | 27093 ft | 400 kts | 168° |
| 2026-04-23 17:12 | 48.15738 | 2.24148 | 27248 ft | 402 kts | 168° |
| 2026-04-23 17:12 | 48.12959 | 2.24820 | 27470 ft | 405 kts | 169° |
| 2026-04-23 17:13 | 48.09268 | 2.25649 | 27756 ft | 409 kts | 171° |
| 2026-04-23 17:13 | 48.06416 | 2.26039 | 27962 ft | 413 kts | 174° |
| 2026-04-23 17:13 | 48.03518 | 2.26234 | 28078 ft | 419 kts | 176° |
| 2026-04-23 17:13 | 48.00582 | 2.26415 | 28199 ft | 424 kts | 176° |
| 2026-04-23 17:14 | 47.97639 | 2.26601 | 28313 ft | 429 kts | 176° |
| 2026-04-23 17:14 | 47.94642 | 2.26790 | 28434 ft | 434 kts | 176° |
| 2026-04-23 17:14 | 47.91596 | 2.26983 | 28552 ft | 439 kts | 176° |
| 2026-04-23 17:14 | 47.88668 | 2.27168 | 28662 ft | 444 kts | 176° |
| 2026-04-23 17:15 | 47.85731 | 2.27353 | 28773 ft | 448 kts | 176° |
| 2026-04-23 17:15 | 47.82412 | 2.27563 | 28933 ft | 453 kts | 176° |
| 2026-04-23 17:15 | 47.80313 | 2.27695 | 29095 ft | 454 kts | 176° |
| 2026-04-23 17:15 | 47.76109 | 2.27962 | 29475 ft | 454 kts | 176° |
| 2026-04-23 17:16 | 47.72950 | 2.28161 | 29744 ft | 455 kts | 177° |
| 2026-04-23 17:16 | 47.69796 | 2.28361 | 29995 ft | 455 kts | 177° |
| 2026-04-23 17:16 | 47.67704 | 2.28492 | 30154 ft | 456 kts | 177° |
| 2026-04-23 17:16 | 47.64536 | 2.28692 | 30420 ft | 456 kts | 177° |
| 2026-04-23 17:17 | 47.60309 | 2.28957 | 30785 ft | 456 kts | 177° |
| 2026-04-23 17:17 | 47.58184 | 2.29091 | 30962 ft | 456 kts | 177° |
| 2026-04-23 17:17 | 47.55054 | 2.29287 | 31226 ft | 455 kts | 177° |
| 2026-04-23 17:17 | 47.50850 | 2.29551 | 31535 ft | 456 kts | 177° |
| 2026-04-23 17:18 | 47.44459 | 2.29952 | 31902 ft | 459 kts | 178° |
| 2026-04-23 17:18 | 47.41262 | 2.30153 | 32085 ft | 460 kts | 178° |
| 2026-04-23 17:18 | 47.38062 | 2.30353 | 32268 ft | 461 kts | 178° |
| 2026-04-23 17:19 | 47.34892 | 2.30551 | 32445 ft | 462 kts | 178° |
| 2026-04-23 17:19 | 47.31684 | 2.30752 | 32618 ft | 463 kts | 178° |
| 2026-04-23 17:19 | 47.28463 | 2.30953 | 32784 ft | 465 kts | 178° |
| 2026-04-23 17:19 | 47.25225 | 2.31155 | 32952 ft | 466 kts | 178° |
| 2026-04-23 17:20 | 47.21987 | 2.31357 | 33117 ft | 467 kts | 178° |
| 2026-04-23 17:21 | 47.08884 | 2.32174 | 33169 ft | 471 kts | 178° |
| 2026-04-23 17:21 | 46.98988 | 2.32794 | 33170 ft | 473 kts | 179° |
| 2026-04-23 17:22 | 46.89076 | 2.33911 | 33168 ft | 477 kts | 171° |
| 2026-04-23 17:23 | 46.82646 | 2.36457 | 33168 ft | 480 kts | 160° |
| 2026-04-23 17:23 | 46.79576 | 2.38358 | 33165 ft | 481 kts | 154° |
| 2026-04-23 17:24 | 46.70952 | 2.46010 | 33153 ft | 483 kts | 146° |
| 2026-04-23 17:24 | 46.62513 | 2.54116 | 33145 ft | 484 kts | 146° |
| 2026-04-23 17:25 | 46.54031 | 2.62155 | 33144 ft | 485 kts | 147° |
| 2026-04-23 17:26 | 46.43647 | 2.71969 | 33144 ft | 485 kts | 147° |
| 2026-04-23 17:27 | 46.34252 | 2.80795 | 33144 ft | 484 kts | 147° |
| 2026-04-23 17:27 | 46.28572 | 2.86101 | 33143 ft | 484 kts | 147° |
| 2026-04-23 17:28 | 46.22937 | 2.91356 | 33145 ft | 483 kts | 147° |
| 2026-04-23 17:28 | 46.17292 | 2.96604 | 33150 ft | 482 kts | 147° |
| 2026-04-23 17:29 | 46.11676 | 3.01815 | 33156 ft | 481 kts | 147° |
| 2026-04-23 17:30 | 46.04172 | 3.08755 | 33161 ft | 480 kts | 147° |
| 2026-04-23 17:30 | 45.94181 | 3.15791 | 33166 ft | 485 kts | 165° |
| 2026-04-23 17:31 | 45.87864 | 3.17639 | 33166 ft | 483 kts | 176° |
| 2026-04-23 17:31 | 45.81168 | 3.17894 | 33168 ft | 480 kts | 184° |
| 2026-04-23 17:32 | 45.74446 | 3.17727 | 33168 ft | 481 kts | 184° |
| 2026-04-23 17:32 | 45.67791 | 3.17593 | 33168 ft | 481 kts | 183° |
| 2026-04-23 17:33 | 45.61076 | 3.17493 | 33169 ft | 482 kts | 184° |
| 2026-04-23 17:33 | 45.54401 | 3.17403 | 33170 ft | 482 kts | 183° |
| 2026-04-23 17:34 | 45.47707 | 3.17316 | 33178 ft | 482 kts | 184° |
| 2026-04-23 17:35 | 45.38788 | 3.17202 | 33190 ft | 482 kts | 184° |
| 2026-04-23 17:35 | 45.27573 | 3.17059 | 33195 ft | 483 kts | 184° |
| 2026-04-23 17:36 | 45.20862 | 3.16975 | 33196 ft | 483 kts | 184° |
| 2026-04-23 17:36 | 45.14139 | 3.16891 | 33196 ft | 484 kts | 184° |
| 2026-04-23 17:37 | 45.07414 | 3.16809 | 32850 ft | 483 kts | 184° |
| 2026-04-23 17:37 | 45.00628 | 3.16724 | 30934 ft | 496 kts | 184° |
| 2026-04-23 17:38 | 44.97178 | 3.16679 | 30057 ft | 499 kts | 184° |
| 2026-04-23 17:38 | 44.93729 | 3.16634 | 29239 ft | 499 kts | 184° |
| 2026-04-23 17:38 | 44.90565 | 3.16587 | 28495 ft | 499 kts | 183° |
| 2026-04-23 17:38 | 44.88122 | 3.16551 | 27909 ft | 499 kts | 183° |
| 2026-04-23 17:39 | 44.84880 | 3.16506 | 27095 ft | 500 kts | 183° |
| 2026-04-23 17:39 | 44.81389 | 3.16463 | 26195 ft | 500 kts | 183° |
| 2026-04-23 17:39 | 44.77922 | 3.16421 | 25293 ft | 500 kts | 182° |
| 2026-04-23 17:39 | 44.74395 | 3.16379 | 24349 ft | 500 kts | 182° |
| 2026-04-23 17:40 | 44.72098 | 3.16352 | 23710 ft | 500 kts | 182° |
| 2026-04-23 17:40 | 44.67409 | 3.16294 | 22570 ft | 496 kts | 182° |
| 2026-04-23 17:40 | 44.63969 | 3.16293 | 21966 ft | 488 kts | 180° |
| 2026-04-23 17:40 | 44.60592 | 3.16568 | 21358 ft | 481 kts | 176° |
| 2026-04-23 17:41 | 44.57295 | 3.17171 | 20712 ft | 476 kts | 172° |
| 2026-04-23 17:41 | 44.50882 | 3.18923 | 19275 ft | 469 kts | 169° |
| 2026-04-23 17:41 | 44.47713 | 3.19820 | 18616 ft | 463 kts | 169° |
| 2026-04-23 17:42 | 44.41463 | 3.21575 | 17460 ft | 450 kts | 169° |
| 2026-04-23 17:42 | 44.38422 | 3.22421 | 16912 ft | 443 kts | 169° |
| 2026-04-23 17:42 | 44.35434 | 3.23250 | 16372 ft | 437 kts | 169° |
| 2026-04-23 17:43 | 44.33471 | 3.23794 | 16013 ft | 433 kts | 169° |
| 2026-04-23 17:43 | 44.29671 | 3.24846 | 15308 ft | 426 kts | 169° |
| 2026-04-23 17:43 | 44.26798 | 3.25639 | 14780 ft | 421 kts | 169° |
| 2026-04-23 17:43 | 44.23926 | 3.26429 | 14249 ft | 416 kts | 169° |
| 2026-04-23 17:44 | 44.21171 | 3.27183 | 13732 ft | 412 kts | 169° |
| 2026-04-23 17:44 | 44.18389 | 3.27946 | 13344 ft | 403 kts | 168° |
| 2026-04-23 17:44 | 44.13123 | 3.29394 | 13030 ft | 373 kts | 168° |
| 2026-04-23 17:45 | 44.10636 | 3.30077 | 12858 ft | 360 kts | 168° |
| 2026-04-23 17:45 | 44.05896 | 3.31379 | 12574 ft | 334 kts | 168° |
| 2026-04-23 17:45 | 44.03646 | 3.31996 | 12458 ft | 321 kts | 168° |
| 2026-04-23 17:46 | 44.00098 | 3.32966 | 12284 ft | 301 kts | 168° |
| 2026-04-23 17:46 | 43.97376 | 3.33713 | 11720 ft | 301 kts | 168° |
| 2026-04-23 17:46 | 43.95315 | 3.34278 | 11314 ft | 300 kts | 168° |
| 2026-04-23 17:47 | 43.93281 | 3.34834 | 10936 ft | 298 kts | 168° |
| 2026-04-23 17:47 | 43.91268 | 3.35383 | 10568 ft | 295 kts | 168° |
| 2026-04-23 17:47 | 43.87238 | 3.36479 | 9822 ft | 291 kts | 168° |
| 2026-04-23 17:48 | 43.85314 | 3.37347 | 9393 ft | 289 kts | 146° |
| 2026-04-23 17:48 | 43.83934 | 3.39280 | 9025 ft | 284 kts | 121° |
| 2026-04-23 17:48 | 43.82945 | 3.41624 | 8664 ft | 282 kts | 119° |
| 2026-04-23 17:48 | 43.81980 | 3.43979 | 8284 ft | 280 kts | 119° |
| 2026-04-23 17:49 | 43.81014 | 3.46312 | 7904 ft | 279 kts | 120° |
| 2026-04-23 17:49 | 43.80039 | 3.48620 | 7537 ft | 277 kts | 121° |
| 2026-04-23 17:49 | 43.79073 | 3.50904 | 7163 ft | 272 kts | 121° |
| 2026-04-23 17:49 | 43.78130 | 3.53111 | 6805 ft | 263 kts | 121° |
| 2026-04-23 17:50 | 43.77204 | 3.55259 | 6459 ft | 254 kts | 121° |
| 2026-04-23 17:50 | 43.75468 | 3.59314 | 5793 ft | 237 kts | 121° |
| 2026-04-23 17:50 | 43.74647 | 3.61228 | 5479 ft | 229 kts | 121° |
| 2026-04-23 17:51 | 43.73844 | 3.63094 | 5193 ft | 225 kts | 121° |
| 2026-04-23 17:51 | 43.73052 | 3.64935 | 4932 ft | 217 kts | 121° |
| 2026-04-23 17:51 | 43.71572 | 3.68415 | 4481 ft | 197 kts | 122° |
| 2026-04-23 17:52 | 43.70902 | 3.69990 | 4287 ft | 186 kts | 122° |
| 2026-04-23 17:52 | 43.69674 | 3.72861 | 3940 ft | 161 kts | 122° |
| 2026-04-23 17:52 | 43.69099 | 3.74199 | 3799 ft | 162 kts | 122° |
| 2026-04-23 17:53 | 43.67951 | 3.76857 | 3482 ft | 162 kts | 124° |
| 2026-04-23 17:53 | 43.67322 | 3.78151 | 3358 ft | 158 kts | 126° |
| 2026-04-23 17:53 | 43.66704 | 3.79389 | 3246 ft | 155 kts | 127° |
| 2026-04-23 17:54 | 43.66094 | 3.80606 | 3126 ft | 154 kts | 127° |
| 2026-04-23 17:54 | 43.65490 | 3.81811 | 3001 ft | 152 kts | 126° |
| 2026-04-23 17:54 | 43.64281 | 3.84222 | 2390 ft | 149 kts | 126° |
| 2026-04-23 17:55 | 43.63088 | 3.86599 | 1885 ft | 150 kts | 127° |
| 2026-04-23 17:55 | 43.62497 | 3.87776 | 1650 ft | 149 kts | 126° |
| 2026-04-23 17:55 | 43.61930 | 3.88982 | 1394 ft | 150 kts | 124° |
| 2026-04-23 17:56 | 43.61377 | 3.90185 | 1173 ft | 148 kts | 126° |
| 2026-04-23 17:56 | 43.60192 | 3.92509 | 724 ft | 147 kts | 127° |
| 2026-04-23 17:56 | 43.59604 | 3.93658 | 470 ft | 148 kts | 128° |
| 2026-04-23 17:57 | 43.59008 | 3.94808 | 208 ft | 147 kts | 128° |
| 2026-04-23 17:57 | 43.58419 | 3.95965 | 27 ft | 145 kts | 127° |
| 2026-04-23 17:57 | 43.57604 | 3.97576 | 25 ft | 51 kts | 125° |
| 2026-04-23 17:58 | 43.57436 | 3.97911 | 25 ft | 38 kts | 127° |
| 2026-04-23 17:58 | 43.57290 | 3.98146 | 25 ft | 25 kts | 154° |
| 2026-04-23 17:58 | 43.57189 | 3.98103 | 25 ft | 15 kts | 239° |
| 2026-04-23 17:58 | 43.57194 | 3.97988 | 25 ft | 12 kts | 302° |
| 2026-04-23 17:59 | 43.57244 | 3.97881 | 25 ft | 13 kts | 306° |
| 2026-04-23 17:59 | 43.57303 | 3.97769 | 25 ft | 14 kts | 305° |
| 2026-04-23 17:59 | 43.57362 | 3.97650 | 25 ft | 15 kts | 304° |
| 2026-04-23 17:59 | 43.57426 | 3.97523 | 25 ft | 16 kts | 304° |
| 2026-04-23 18:00 | 43.57491 | 3.97389 | 25 ft | 17 kts | 305° |
| 2026-04-23 18:00 | 43.57537 | 3.97301 | 25 ft | 15 kts | 306° |
| 2026-04-23 18:00 | 43.57625 | 3.97129 | 25 ft | 16 kts | 304° |
| 2026-04-23 18:00 | 43.57686 | 3.97004 | 25 ft | 15 kts | 303° |
| 2026-04-23 18:01 | 43.57752 | 3.96876 | 25 ft | 16 kts | 305° |
| 2026-04-23 18:01 | 43.57819 | 3.96742 | 25 ft | 17 kts | 303° |
| 2026-04-23 18:01 | 43.57888 | 3.96604 | 25 ft | 17 kts | 305° |
| 2026-04-23 18:01 | 43.57959 | 3.96463 | 25 ft | 18 kts | 304° |
| 2026-04-23 18:02 | 43.58008 | 3.96366 | 25 ft | 18 kts | 305° |
| 2026-04-23 18:02 | 43.58017 | 3.96245 | 25 ft | 10 kts | 216° |
| 2026-04-23 18:02 | 43.57970 | 3.96169 | 25 ft | 11 kts | 258° |
| 2026-04-23 18:02 | 43.57997 | 3.96073 | 25 ft | 7 kts | 304° |
| 2026-04-23 18:03 | 43.57987 | 3.96027 | 25 ft | 2 kts | 217° |
| 2026-04-23 18:03 | 43.57967 | 3.96006 | 25 ft | 3 kts | 217° |
| 2026-04-23 18:03 | 43.57966 | 3.96005 | 25 ft | 0 kts | 217° |